PIA782 CYYZ-OPIS
Flight info
| Callsign | PIA782 |
|---|---|
| Flight time | N/A |
| Altitude | 33000 |
| Route | SEDOG6 BOBSU DCT MT DCT LOMTA/M084F330 DCT RADUN DCT 63N050W/M083F350 66N040W 68N030W 70N020W 71N010W 71N000E/N0487F350 DCT ORTEN DCT KELEK/K0911F370 L93 OKAMO L991 MULTA M199 AKB/K0893F390 M199 INKUM L163 DODUR Z578 LANOL DCT MIRVI DCT POMIR DCT FIRUZ/N0478F390 P500 MOTMO/N0478F400 P500 GERRY/N0478F390 P500 ATROL/N0478F400 P500 PS J143 KALMI |
| Aircraft | B77L/H-SDE1E2E3FGHIJ2J3J4J5M1RWXY/LB1D1 |
Departure
| Time | N/A |
|---|---|
| Airport | Toronto Pearson International Airport (CYYZ) |
Arrival
| Time | 2026-04-26 19:02 |
|---|---|
| Airport | Islamabad International Airport (OPIS) |
| Time | Latitude | Longitude | Altitude | Speed | Heading |
|---|---|---|---|---|---|
| 2026-04-26 18:13 | 37.47069 | 71.63121 | 39229 ft | 469 kts | 186° |
| 2026-04-26 18:14 | 37.40537 | 71.63112 | 39215 ft | 470 kts | 186° |
| 2026-04-26 18:14 | 37.33991 | 71.63087 | 39253 ft | 472 kts | 186° |
| 2026-04-26 18:15 | 37.27445 | 71.63088 | 39228 ft | 474 kts | 186° |
| 2026-04-26 18:15 | 37.20846 | 71.63083 | 39188 ft | 474 kts | 186° |
| 2026-04-26 18:16 | 37.14268 | 71.63072 | 39241 ft | 472 kts | 186° |
| 2026-04-26 18:16 | 37.04417 | 71.63054 | 39251 ft | 471 kts | 186° |
| 2026-04-26 18:17 | 36.97846 | 71.63049 | 39233 ft | 473 kts | 186° |
| 2026-04-26 18:17 | 36.91298 | 71.63037 | 39241 ft | 474 kts | 186° |
| 2026-04-26 18:18 | 36.84662 | 71.63029 | 39240 ft | 477 kts | 186° |
| 2026-04-26 18:18 | 36.78041 | 71.63019 | 39235 ft | 478 kts | 186° |
| 2026-04-26 18:19 | 36.71400 | 71.63001 | 39214 ft | 476 kts | 186° |
| 2026-04-26 18:19 | 36.64769 | 71.63012 | 39228 ft | 477 kts | 185° |
| 2026-04-26 18:20 | 36.58084 | 71.63119 | 39220 ft | 478 kts | 185° |
| 2026-04-26 18:20 | 36.52551 | 71.63213 | 39237 ft | 477 kts | 185° |
| 2026-04-26 18:21 | 36.44849 | 71.63067 | 39227 ft | 468 kts | 193° |
| 2026-04-26 18:21 | 36.38453 | 71.61827 | 39220 ft | 464 kts | 195° |
| 2026-04-26 18:22 | 36.32072 | 71.60558 | 39231 ft | 466 kts | 194° |
| 2026-04-26 18:22 | 36.25624 | 71.59350 | 39223 ft | 470 kts | 193° |
| 2026-04-26 18:23 | 36.22320 | 71.59183 | 39193 ft | 483 kts | 181° |
| 2026-04-26 18:23 | 36.18978 | 71.59815 | 39180 ft | 489 kts | 172° |
| 2026-04-26 18:23 | 36.15762 | 71.61081 | 39169 ft | 497 kts | 161° |
| 2026-04-26 18:23 | 36.12677 | 71.63066 | 39175 ft | 502 kts | 156° |
| 2026-04-26 18:24 | 36.06661 | 71.67458 | 39190 ft | 503 kts | 154° |
| 2026-04-26 18:24 | 36.00588 | 71.71758 | 39089 ft | 502 kts | 156° |
| 2026-04-26 18:25 | 35.94492 | 71.75933 | 39115 ft | 499 kts | 156° |
| 2026-04-26 18:25 | 35.88148 | 71.78939 | 39086 ft | 484 kts | 176° |
| 2026-04-26 18:26 | 35.81498 | 71.79120 | 39051 ft | 477 kts | 193° |
| 2026-04-26 18:26 | 35.74915 | 71.78034 | 39058 ft | 477 kts | 194° |
| 2026-04-26 18:27 | 35.68321 | 71.76949 | 39052 ft | 478 kts | 193° |
| 2026-04-26 18:27 | 35.61716 | 71.75928 | 39045 ft | 478 kts | 193° |
| 2026-04-26 18:28 | 35.55171 | 71.74946 | 39024 ft | 472 kts | 193° |
| 2026-04-26 18:28 | 35.48662 | 71.73962 | 38988 ft | 470 kts | 193° |
| 2026-04-26 18:29 | 35.42190 | 71.72984 | 38968 ft | 466 kts | 193° |
| 2026-04-26 18:29 | 35.35714 | 71.72012 | 38989 ft | 474 kts | 193° |
| 2026-04-26 18:30 | 35.29129 | 71.71027 | 38939 ft | 479 kts | 193° |
| 2026-04-26 18:30 | 35.22514 | 71.70040 | 38934 ft | 479 kts | 193° |
| 2026-04-26 18:31 | 35.15897 | 71.69059 | 38936 ft | 479 kts | 193° |
| 2026-04-26 18:31 | 35.09314 | 71.68081 | 38919 ft | 480 kts | 193° |
| 2026-04-26 18:32 | 35.02679 | 71.67097 | 38891 ft | 479 kts | 193° |
| 2026-04-26 18:32 | 34.96071 | 71.66110 | 38876 ft | 478 kts | 193° |
| 2026-04-26 18:33 | 34.89474 | 71.65130 | 38876 ft | 476 kts | 193° |
| 2026-04-26 18:33 | 34.82904 | 71.64159 | 38843 ft | 475 kts | 193° |
| 2026-04-26 18:34 | 34.76349 | 71.63196 | 38855 ft | 474 kts | 193° |
| 2026-04-26 18:34 | 34.69798 | 71.62224 | 38844 ft | 474 kts | 193° |
| 2026-04-26 18:35 | 34.63252 | 71.61259 | 38831 ft | 475 kts | 193° |
| 2026-04-26 18:35 | 34.56683 | 71.60292 | 38812 ft | 476 kts | 193° |
| 2026-04-26 18:36 | 34.50099 | 71.59326 | 38808 ft | 477 kts | 193° |
| 2026-04-26 18:36 | 34.43508 | 71.58359 | 38790 ft | 478 kts | 193° |
| 2026-04-26 18:37 | 34.36899 | 71.57391 | 38794 ft | 478 kts | 193° |
| 2026-04-26 18:37 | 34.34141 | 71.56988 | 38793 ft | 478 kts | 193° |
| 2026-04-26 18:38 | 34.27531 | 71.56024 | 38781 ft | 478 kts | 193° |
| 2026-04-26 18:38 | 34.20910 | 71.55059 | 38777 ft | 479 kts | 193° |
| 2026-04-26 18:39 | 34.14291 | 71.54095 | 38779 ft | 479 kts | 193° |
| 2026-04-26 18:39 | 34.07730 | 71.53145 | 38448 ft | 467 kts | 193° |
| 2026-04-26 18:40 | 34.04504 | 71.52677 | 37617 ft | 469 kts | 193° |
| 2026-04-26 18:40 | 34.01222 | 71.52336 | 36917 ft | 482 kts | 185° |
| 2026-04-26 18:40 | 33.97851 | 71.52829 | 36510 ft | 494 kts | 172° |
| 2026-04-26 18:40 | 33.94586 | 71.54145 | 36212 ft | 494 kts | 160° |
| 2026-04-26 18:41 | 33.91585 | 71.56189 | 35429 ft | 498 kts | 151° |
| 2026-04-26 18:41 | 33.88710 | 71.58520 | 34474 ft | 499 kts | 149° |
| 2026-04-26 18:41 | 33.85852 | 71.60882 | 33498 ft | 498 kts | 149° |
| 2026-04-26 18:41 | 33.82983 | 71.63206 | 32263 ft | 497 kts | 149° |
| 2026-04-26 18:42 | 33.80080 | 71.65490 | 30841 ft | 501 kts | 149° |
| 2026-04-26 18:42 | 33.77146 | 71.67758 | 29442 ft | 503 kts | 149° |
| 2026-04-26 18:42 | 33.74205 | 71.70023 | 28362 ft | 503 kts | 149° |
| 2026-04-26 18:42 | 33.71298 | 71.72247 | 27827 ft | 500 kts | 149° |
| 2026-04-26 18:43 | 33.68386 | 71.74466 | 27516 ft | 493 kts | 149° |
| 2026-04-26 18:43 | 33.65517 | 71.76660 | 27250 ft | 486 kts | 149° |
| 2026-04-26 18:43 | 33.62678 | 71.78830 | 26913 ft | 481 kts | 149° |
| 2026-04-26 18:43 | 33.59862 | 71.80980 | 26437 ft | 479 kts | 149° |
| 2026-04-26 18:44 | 33.57253 | 71.83450 | 25800 ft | 483 kts | 135° |
| 2026-04-26 18:44 | 33.55213 | 71.86632 | 25236 ft | 474 kts | 123° |
| 2026-04-26 18:44 | 33.53745 | 71.90066 | 24640 ft | 454 kts | 114° |
| 2026-04-26 18:44 | 33.52771 | 71.93583 | 24052 ft | 437 kts | 103° |
| 2026-04-26 18:45 | 33.52428 | 71.97200 | 23497 ft | 439 kts | 94° |
| 2026-04-26 18:45 | 33.52264 | 72.00910 | 22811 ft | 454 kts | 94° |
| 2026-04-26 18:45 | 33.52099 | 72.04741 | 22144 ft | 465 kts | 94° |
| 2026-04-26 18:45 | 33.51920 | 72.08601 | 21488 ft | 463 kts | 94° |
| 2026-04-26 18:46 | 33.51727 | 72.12428 | 20852 ft | 457 kts | 94° |
| 2026-04-26 18:46 | 33.51525 | 72.16183 | 20230 ft | 445 kts | 95° |
| 2026-04-26 18:46 | 33.51386 | 72.18673 | 19832 ft | 442 kts | 95° |
| 2026-04-26 18:47 | 33.51196 | 72.22004 | 19294 ft | 434 kts | 95° |
| 2026-04-26 18:47 | 33.50993 | 72.25527 | 18712 ft | 419 kts | 95° |
| 2026-04-26 18:48 | 33.50792 | 72.28983 | 18081 ft | 413 kts | 95° |
| 2026-04-26 18:48 | 33.50591 | 72.32425 | 17244 ft | 417 kts | 95° |
| 2026-04-26 18:48 | 33.50387 | 72.35895 | 16333 ft | 416 kts | 94° |
| 2026-04-26 18:48 | 33.50187 | 72.39317 | 15404 ft | 409 kts | 94° |
| 2026-04-26 18:49 | 33.49988 | 72.42694 | 14511 ft | 404 kts | 94° |
| 2026-04-26 18:49 | 33.49791 | 72.46031 | 13655 ft | 400 kts | 94° |
| 2026-04-26 18:49 | 33.49596 | 72.49328 | 12714 ft | 394 kts | 94° |
| 2026-04-26 18:49 | 33.49404 | 72.52555 | 11766 ft | 380 kts | 94° |
| 2026-04-26 18:50 | 33.49219 | 72.55651 | 10670 ft | 372 kts | 93° |
| 2026-04-26 18:50 | 33.48996 | 72.58732 | 10519 ft | 370 kts | 96° |
| 2026-04-26 18:50 | 33.48628 | 72.61718 | 10328 ft | 353 kts | 99° |
| 2026-04-26 18:50 | 33.48210 | 72.64515 | 9902 ft | 332 kts | 99° |
| 2026-04-26 18:51 | 33.47803 | 72.67157 | 9394 ft | 313 kts | 99° |
| 2026-04-26 18:51 | 33.47424 | 72.69657 | 8757 ft | 299 kts | 99° |
| 2026-04-26 18:51 | 33.47066 | 72.72067 | 8025 ft | 291 kts | 98° |
| 2026-04-26 18:51 | 33.46720 | 72.74442 | 7245 ft | 287 kts | 98° |
| 2026-04-26 18:52 | 33.46381 | 72.76789 | 6453 ft | 285 kts | 98° |
| 2026-04-26 18:52 | 33.46048 | 72.79102 | 5913 ft | 280 kts | 98° |
| 2026-04-26 18:52 | 33.45723 | 72.81371 | 5635 ft | 277 kts | 98° |
| 2026-04-26 18:52 | 33.45395 | 72.83674 | 5372 ft | 283 kts | 98° |
| 2026-04-26 18:53 | 33.45061 | 72.86014 | 5104 ft | 287 kts | 98° |
| 2026-04-26 18:53 | 33.44728 | 72.88336 | 4795 ft | 275 kts | 98° |
| 2026-04-26 18:53 | 33.44412 | 72.90532 | 4469 ft | 260 kts | 98° |
| 2026-04-26 18:53 | 33.44128 | 72.92511 | 4194 ft | 252 kts | 98° |
| 2026-04-26 18:54 | 33.43823 | 72.94645 | 4074 ft | 248 kts | 98° |
| 2026-04-26 18:54 | 33.43530 | 72.96682 | 3970 ft | 248 kts | 98° |
| 2026-04-26 18:54 | 33.43237 | 72.98716 | 3851 ft | 247 kts | 98° |
| 2026-04-26 18:54 | 33.42947 | 73.00725 | 3777 ft | 243 kts | 98° |
| 2026-04-26 18:55 | 33.42660 | 73.02709 | 3716 ft | 241 kts | 97° |
| 2026-04-26 18:55 | 33.42376 | 73.04677 | 3703 ft | 240 kts | 97° |
| 2026-04-26 18:55 | 33.42247 | 73.06646 | 3685 ft | 237 kts | 77° |
| 2026-04-26 18:55 | 33.42902 | 73.08393 | 3700 ft | 229 kts | 44° |
| 2026-04-26 18:56 | 33.43712 | 73.09170 | 3705 ft | 224 kts | 22° |
| 2026-04-26 18:56 | 33.45192 | 73.09517 | 3698 ft | 216 kts | 349° |
| 2026-04-26 18:56 | 33.46562 | 73.08874 | 3709 ft | 212 kts | 327° |
| 2026-04-26 18:56 | 33.47792 | 73.07873 | 3713 ft | 216 kts | 323° |
| 2026-04-26 18:57 | 33.49016 | 73.06813 | 3712 ft | 219 kts | 323° |
| 2026-04-26 18:57 | 33.49825 | 73.06104 | 3698 ft | 214 kts | 323° |
| 2026-04-26 18:57 | 33.51042 | 73.04440 | 3716 ft | 195 kts | 292° |
| 2026-04-26 18:57 | 33.51455 | 73.02882 | 3699 ft | 195 kts | 289° |
| 2026-04-26 18:58 | 33.51831 | 73.01358 | 3696 ft | 187 kts | 286° |
| 2026-04-26 18:58 | 33.52108 | 72.99844 | 3701 ft | 185 kts | 283° |
| 2026-04-26 18:58 | 33.52347 | 72.98341 | 3698 ft | 182 kts | 283° |
| 2026-04-26 18:58 | 33.52572 | 72.96898 | 3706 ft | 170 kts | 283° |
| 2026-04-26 18:59 | 33.52785 | 72.95524 | 3493 ft | 166 kts | 283° |
| 2026-04-26 18:59 | 33.52994 | 72.94185 | 3305 ft | 159 kts | 283° |
| 2026-04-26 18:59 | 33.53187 | 72.92945 | 3114 ft | 144 kts | 284° |
| 2026-04-26 18:59 | 33.53367 | 72.91793 | 2932 ft | 139 kts | 284° |
| 2026-04-26 19:00 | 33.53549 | 72.90641 | 2750 ft | 142 kts | 283° |
| 2026-04-26 19:00 | 33.53731 | 72.89468 | 2586 ft | 144 kts | 282° |
| 2026-04-26 19:00 | 33.53916 | 72.88279 | 2409 ft | 145 kts | 282° |
| 2026-04-26 19:00 | 33.54101 | 72.87093 | 2229 ft | 144 kts | 281° |
| 2026-04-26 19:01 | 33.54283 | 72.85918 | 2038 ft | 142 kts | 280° |
| 2026-04-26 19:01 | 33.54467 | 72.84751 | 1856 ft | 143 kts | 280° |
| 2026-04-26 19:01 | 33.54645 | 72.83611 | 1772 ft | 129 kts | 279° |
| 2026-04-26 19:01 | 33.54781 | 72.82732 | 1767 ft | 81 kts | 280° |
| 2026-04-26 19:02 | 33.54854 | 72.82266 | 1765 ft | 40 kts | 280° |
| 2026-04-26 19:02 | 33.54908 | 72.81925 | 1768 ft | 32 kts | 284° |
| 2026-04-26 19:02 | 33.54996 | 72.81713 | 1769 ft | 17 kts | 305° |
| 2026-04-26 19:02 | 33.55039 | 72.81647 | 1769 ft | 14 kts | 309° |
| 2026-04-26 19:03 | 33.55149 | 72.81590 | 1765 ft | 15 kts | 11° |
| 2026-04-26 19:03 | 33.55231 | 72.81608 | 1769 ft | 11 kts | 10° |
| 2026-04-26 19:03 | 33.55305 | 72.81624 | 1773 ft | 8 kts | 10° |
| 2026-04-26 19:03 | 33.55332 | 72.81652 | 1775 ft | 6 kts | 75° |
| 2026-04-26 19:04 | 33.55325 | 72.81735 | 1775 ft | 16 kts | 100° |
| 2026-04-26 19:04 | 33.55324 | 72.81740 | 1775 ft | 16 kts | 100° |
| 2026-04-26 19:04 | 33.55317 | 72.81784 | 1774 ft | 16 kts | 101° |
| 2026-04-26 19:04 | 33.55296 | 72.81918 | 1776 ft | 16 kts | 100° |
| 2026-04-26 19:05 | 33.55256 | 72.82188 | 1774 ft | 16 kts | 100° |
| 2026-04-26 19:05 | 33.55233 | 72.82322 | 1774 ft | 16 kts | 101° |
| 2026-04-26 19:05 | 33.55219 | 72.82423 | 1775 ft | 9 kts | 101° |
| 2026-04-26 19:06 | 33.55207 | 72.82500 | 1776 ft | 10 kts | 101° |
| 2026-04-26 19:06 | 33.55194 | 72.82588 | 1776 ft | 11 kts | 99° |
| 2026-04-26 19:06 | 33.55181 | 72.82670 | 1776 ft | 7 kts | 100° |
| 2026-04-26 19:06 | 33.55172 | 72.82735 | 1775 ft | 8 kts | 100° |
| 2026-04-26 19:07 | 33.55161 | 72.82805 | 1775 ft | 9 kts | 100° |
| 2026-04-26 19:07 | 33.55149 | 72.82883 | 1776 ft | 10 kts | 99° |
| 2026-04-26 19:07 | 33.55169 | 72.82963 | 1777 ft | 11 kts | 58° |
| 2026-04-26 19:07 | 33.55232 | 72.83076 | 1776 ft | 18 kts | 56° |
| 2026-04-26 19:08 | 33.55302 | 72.83199 | 1779 ft | 18 kts | 55° |
| 2026-04-26 19:08 | 33.55351 | 72.83288 | 1778 ft | 11 kts | 63° |
| 2026-04-26 19:08 | 33.55351 | 72.83378 | 1776 ft | 11 kts | 100° |
| 2026-04-26 19:08 | 33.55353 | 72.83422 | 1775 ft | 6 kts | 60° |
| 2026-04-26 19:09 | 33.55392 | 72.83435 | 1776 ft | 6 kts | 9° |
| 2026-04-26 19:09 | 33.55419 | 72.83441 | 1776 ft | 1 kts | 10° |
| 2026-04-26 19:09 | 33.55426 | 72.83443 | 1776 ft | 0 kts | 10° |